This is the latest recevied weather packets stored in our database for station/object EFTP. If no packets are shown the sender has not sent any weather packets the latest 10 day(s).
| Time | Temp. | Humidity | Pressure | Rain* | Wind** | Luminosity | Snow |
|---|---|---|---|---|---|---|---|
| 1777541215 | 11.67° C | 60% | 1020.7 hPa | - | - | - | - |
| 1777540014 | 11.67° C | 61% | 1020.6 hPa | - | - | - | - |
| 1777538814 | 11.11° C | 62% | 1020.8 hPa | - | - | - | - |
| 1777537614 | 10.56° C | 64% | 1020.9 hPa | - | - | - | - |
| 1777536414 | 10° C | 66% | 1020.7 hPa | - | - | - | - |
| 1777535215 | 9.44° C | 69% | 1020.8 hPa | - | - | - | - |
| 1777534014 | 9.44° C | 71% | 1020.7 hPa | - | - | - | - |
| 1777532814 | 8.33° C | 76% | 1020.8 hPa | - | - | - | - |
| 1777531614 | 7.78° C | 78% | 1020.9 hPa | - | - | - | - |
| 1777530414 | 6.67° C | 82% | 1020.9 hPa | - | - | - | - |
| 1777529214 | 5.56° C | 87% | 1021 hPa | - | - | - | - |
| 1777528014 | 5° C | 89% | 1020.9 hPa | - | - | - | - |
| 1777526813 | 4.44° C | 91% | 1020.7 hPa | - | - | - | - |
| 1777525613 | 3.89° C | 91% | 1021 hPa | - | - | - | - |
| 1777524414 | 3.89° C | 91% | 1021.3 hPa | - | - | - | - |
| 1777523213 | 3.33° C | 91% | 1021.5 hPa | - | - | - | - |
| 1777522014 | 3.33° C | 91% | 1021.3 hPa | - | - | - | - |
| 1777520814 | 3.33° C | 91% | 1021.3 hPa | - | - | - | - |
| 1777519613 | 3.33° C | 91% | 1021.5 hPa | - | - | - | - |
| 1777518414 | 2.78° C | 92% | 1021.7 hPa | - | - | - | - |
| 1777517213 | 2.78° C | 91% | 1021.7 hPa | - | - | - | - |
| 1777516013 | 2.78° C | 91% | 1021.8 hPa | - | - | - | - |
| 1777514813 | 2.78° C | 90% | 1021.9 hPa | - | - | - | - |
| 1777513614 | 3.33° C | 88% | 1022.1 hPa | - | - | - | - |
| 1777512413 | 2.78° C | 89% | 1022 hPa | - | - | - | - |
* Rain since midnight (hover to see other rain measurements)
** Current wind speed in m/s (hover to see current wind gust speed)